sensor_id;sensor_type;location;lat;lon;timestamp;temperature;humidity
48836;DHT22;62581;47.342;7.908;2023-01-05T00:00:14;10.30;99.90
48836;DHT22;62581;47.342;7.908;2023-01-05T00:02:40;10.40;99.90
48836;DHT22;62581;47.342;7.908;2023-01-05T00:05:07;10.40;99.90
48836;DHT22;62581;47.342;7.908;2023-01-05T00:07:34;10.40;99.90
48836;DHT22;62581;47.342;7.908;2023-01-05T00:10:03;10.40;99.90
48836;DHT22;62581;47.342;7.908;2023-01-05T00:12:50;10.30;99.90
48836;DHT22;62581;47.342;7.908;2023-01-05T00:15:35;10.40;99.90
48836;DHT22;62581;47.342;7.908;2023-01-05T00:18:19;10.40;99.90
48836;DHT22;62581;47.342;7.908;2023-01-05T00:21:11;10.30;99.90
48836;DHT22;62581;47.342;7.908;2023-01-05T00:23:56;10.30;99.90
48836;DHT22;62581;47.342;7.908;2023-01-05T00:26:24;10.30;99.90
48836;DHT22;62581;47.342;7.908;2023-01-05T00:28:51;10.30;99.90
48836;DHT22;62581;47.342;7.908;2023-01-05T00:31:17;10.30;99.90
48836;DHT22;62581;47.342;7.908;2023-01-05T00:33:44;10.30;99.90
48836;DHT22;62581;47.342;7.908;2023-01-05T00:36:11;10.30;99.90
48836;DHT22;62581;47.342;7.908;2023-01-05T00:38:38;10.30;99.90
48836;DHT22;62581;47.342;7.908;2023-01-05T00:41:04;10.30;99.90
48836;DHT22;62581;47.342;7.908;2023-01-05T00:43:33;10.30;99.90
48836;DHT22;62581;47.342;7.908;2023-01-05T00:45:59;10.30;99.90
48836;DHT22;62581;47.342;7.908;2023-01-05T00:48:26;10.30;99.90
48836;DHT22;62581;47.342;7.908;2023-01-05T00:50:53;10.30;99.90
48836;DHT22;62581;47.342;7.908;2023-01-05T00:53:20;10.20;99.90
48836;DHT22;62581;47.342;7.908;2023-01-05T00:55:54;10.30;99.90
48836;DHT22;62581;47.342;7.908;2023-01-05T00:58:20;10.30;99.90
48836;DHT22;62581;47.342;7.908;2023-01-05T01:00:49;10.30;99.90
48836;DHT22;62581;47.342;7.908;2023-01-05T01:03:15;10.30;99.90
48836;DHT22;62581;47.342;7.908;2023-01-05T01:05:42;10.30;99.90
48836;DHT22;62581;47.342;7.908;2023-01-05T01:08:09;10.30;99.90
48836;DHT22;62581;47.342;7.908;2023-01-05T01:10:37;10.30;99.90
48836;DHT22;62581;47.342;7.908;2023-01-05T01:13:05;10.30;99.90
48836;DHT22;62581;47.342;7.908;2023-01-05T01:15:32;10.40;99.90
48836;DHT22;62581;47.342;7.908;2023-01-05T01:18:02;10.30;99.90
48836;DHT22;62581;47.342;7.908;2023-01-05T01:20:29;10.30;99.90
48836;DHT22;62581;47.342;7.908;2023-01-05T01:22:55;10.20;99.90
48836;DHT22;62581;47.342;7.908;2023-01-05T01:25:24;10.30;99.90
48836;DHT22;62581;47.342;7.908;2023-01-05T01:27:51;10.30;99.90
48836;DHT22;62581;47.342;7.908;2023-01-05T01:30:18;10.30;99.90
48836;DHT22;62581;47.342;7.908;2023-01-05T01:32:45;10.30;99.90
48836;DHT22;62581;47.342;7.908;2023-01-05T01:35:13;10.30;99.90
48836;DHT22;62581;47.342;7.908;2023-01-05T01:37:40;10.30;99.90
48836;DHT22;62581;47.342;7.908;2023-01-05T01:40:07;10.30;99.90
48836;DHT22;62581;47.342;7.908;2023-01-05T01:42:34;10.40;99.90
48836;DHT22;62581;47.342;7.908;2023-01-05T01:45:03;10.30;99.90
48836;DHT22;62581;47.342;7.908;2023-01-05T01:47:36;10.40;99.90
48836;DHT22;62581;47.342;7.908;2023-01-05T01:50:05;10.40;99.90
48836;DHT22;62581;47.342;7.908;2023-01-05T01:52:35;10.30;99.90
48836;DHT22;62581;47.342;7.908;2023-01-05T01:55:03;10.40;99.90
48836;DHT22;62581;47.342;7.908;2023-01-05T01:57:30;10.40;99.90
48836;DHT22;62581;47.342;7.908;2023-01-05T01:59:58;10.40;99.90
48836;DHT22;62581;47.342;7.908;2023-01-05T02:02:26;10.40;99.90
48836;DHT22;62581;47.342;7.908;2023-01-05T02:04:53;10.40;99.90
48836;DHT22;62581;47.342;7.908;2023-01-05T02:07:22;10.30;99.90
48836;DHT22;62581;47.342;7.908;2023-01-05T02:09:51;10.30;99.90
48836;DHT22;62581;47.342;7.908;2023-01-05T02:12:23;10.40;99.90
48836;DHT22;62581;47.342;7.908;2023-01-05T02:14:56;10.30;99.90
48836;DHT22;62581;47.342;7.908;2023-01-05T02:17:28;10.30;99.90
48836;DHT22;62581;47.342;7.908;2023-01-05T02:20:05;10.30;99.90
48836;DHT22;62581;47.342;7.908;2023-01-05T02:28:05;10.20;99.90
48836;DHT22;62581;47.342;7.908;2023-01-05T02:30:54;10.10;99.90
48836;DHT22;62581;47.342;7.908;2023-01-05T02:33:25;10.10;99.90
48836;DHT22;62581;47.342;7.908;2023-01-05T02:35:55;10.10;99.90
48836;DHT22;62581;47.342;7.908;2023-01-05T02:38:24;10.00;99.90
48836;DHT22;62581;47.342;7.908;2023-01-05T02:40:53;10.00;99.90
48836;DHT22;62581;47.342;7.908;2023-01-05T02:43:22;10.00;99.90
48836;DHT22;62581;47.342;7.908;2023-01-05T02:45:49;9.90;99.90
48836;DHT22;62581;47.342;7.908;2023-01-05T02:48:17;9.90;99.90
48836;DHT22;62581;47.342;7.908;2023-01-05T02:50:44;9.80;99.90
48836;DHT22;62581;47.342;7.908;2023-01-05T02:53:13;9.90;99.90
48836;DHT22;62581;47.342;7.908;2023-01-05T02:55:42;9.90;99.90
48836;DHT22;62581;47.342;7.908;2023-01-05T02:58:11;9.90;99.90
48836;DHT22;62581;47.342;7.908;2023-01-05T03:00:41;9.90;99.90
48836;DHT22;62581;47.342;7.908;2023-01-05T03:03:10;9.90;99.90
48836;DHT22;62581;47.342;7.908;2023-01-05T03:05:41;9.90;99.90
48836;DHT22;62581;47.342;7.908;2023-01-05T03:08:10;9.80;99.90
48836;DHT22;62581;47.342;7.908;2023-01-05T03:10:51;9.80;99.90
48836;DHT22;62581;47.342;7.908;2023-01-05T03:13:37;9.80;99.90
48836;DHT22;62581;47.342;7.908;2023-01-05T03:16:09;9.80;99.90
48836;DHT22;62581;47.342;7.908;2023-01-05T03:18:37;9.70;99.90
48836;DHT22;62581;47.342;7.908;2023-01-05T03:21:26;9.80;99.90
48836;DHT22;62581;47.342;7.908;2023-01-05T03:23:52;9.80;99.90
48836;DHT22;62581;47.342;7.908;2023-01-05T03:26:37;9.80;99.90
48836;DHT22;62581;47.342;7.908;2023-01-05T03:29:22;9.80;99.90
48836;DHT22;62581;47.342;7.908;2023-01-05T03:32:07;9.80;99.90
48836;DHT22;62581;47.342;7.908;2023-01-05T03:34:54;9.80;99.90
48836;DHT22;62581;47.342;7.908;2023-01-05T03:37:42;9.80;99.90
48836;DHT22;62581;47.342;7.908;2023-01-05T03:40:10;9.70;99.90
48836;DHT22;62581;47.342;7.908;2023-01-05T03:42:38;9.80;99.90
48836;DHT22;62581;47.342;7.908;2023-01-05T03:45:05;9.80;99.90
48836;DHT22;62581;47.342;7.908;2023-01-05T03:47:32;9.80;99.90
48836;DHT22;62581;47.342;7.908;2023-01-05T03:49:59;9.80;99.90
48836;DHT22;62581;47.342;7.908;2023-01-05T03:52:26;9.80;99.90
48836;DHT22;62581;47.342;7.908;2023-01-05T03:54:54;9.80;99.90
48836;DHT22;62581;47.342;7.908;2023-01-05T03:57:21;9.90;99.90
48836;DHT22;62581;47.342;7.908;2023-01-05T03:59:48;9.90;99.90
48836;DHT22;62581;47.342;7.908;2023-01-05T04:02:14;9.80;99.90
48836;DHT22;62581;47.342;7.908;2023-01-05T04:04:41;9.80;99.90
48836;DHT22;62581;47.342;7.908;2023-01-05T04:07:08;9.90;99.90
48836;DHT22;62581;47.342;7.908;2023-01-05T04:09:35;9.80;99.90
48836;DHT22;62581;47.342;7.908;2023-01-05T04:12:03;9.90;99.90
48836;DHT22;62581;47.342;7.908;2023-01-05T04:14:30;9.90;99.90
48836;DHT22;62581;47.342;7.908;2023-01-05T04:16:57;9.80;99.90
48836;DHT22;62581;47.342;7.908;2023-01-05T04:19:23;9.80;99.90
48836;DHT22;62581;47.342;7.908;2023-01-05T04:21:50;9.80;99.90
48836;DHT22;62581;47.342;7.908;2023-01-05T04:24:17;9.80;99.90
48836;DHT22;62581;47.342;7.908;2023-01-05T04:26:44;9.80;99.90
48836;DHT22;62581;47.342;7.908;2023-01-05T04:29:12;9.80;99.90
48836;DHT22;62581;47.342;7.908;2023-01-05T04:31:39;9.80;99.90
48836;DHT22;62581;47.342;7.908;2023-01-05T04:34:06;9.80;99.90
48836;DHT22;62581;47.342;7.908;2023-01-05T04:36:32;9.70;99.90
48836;DHT22;62581;47.342;7.908;2023-01-05T04:38:59;9.70;99.90
48836;DHT22;62581;47.342;7.908;2023-01-05T04:41:26;9.70;99.90
48836;DHT22;62581;47.342;7.908;2023-01-05T04:43:53;9.70;99.90
48836;DHT22;62581;47.342;7.908;2023-01-05T04:46:21;9.70;99.90
48836;DHT22;62581;47.342;7.908;2023-01-05T04:48:47;9.70;99.90
48836;DHT22;62581;47.342;7.908;2023-01-05T04:51:14;9.70;99.90
48836;DHT22;62581;47.342;7.908;2023-01-05T04:53:41;9.70;99.90
48836;DHT22;62581;47.342;7.908;2023-01-05T04:56:08;9.70;99.90
48836;DHT22;62581;47.342;7.908;2023-01-05T04:58:35;9.70;99.90
48836;DHT22;62581;47.342;7.908;2023-01-05T05:01:02;9.80;99.90
48836;DHT22;62581;47.342;7.908;2023-01-05T05:03:30;9.80;99.90
48836;DHT22;62581;47.342;7.908;2023-01-05T05:05:57;9.80;99.90
48836;DHT22;62581;47.342;7.908;2023-01-05T05:08:23;9.80;99.90
48836;DHT22;62581;47.342;7.908;2023-01-05T05:10:50;9.80;99.90
48836;DHT22;62581;47.342;7.908;2023-01-05T05:13:17;9.90;99.90
48836;DHT22;62581;47.342;7.908;2023-01-05T05:15:44;9.90;99.90
48836;DHT22;62581;47.342;7.908;2023-01-05T05:18:11;9.90;99.90
48836;DHT22;62581;47.342;7.908;2023-01-05T05:20:40;9.90;99.90
48836;DHT22;62581;47.342;7.908;2023-01-05T05:23:08;9.90;99.90
48836;DHT22;62581;47.342;7.908;2023-01-05T05:25:35;9.90;99.90
48836;DHT22;62581;47.342;7.908;2023-01-05T05:28:01;9.90;99.90
48836;DHT22;62581;47.342;7.908;2023-01-05T05:30:28;9.90;99.90
48836;DHT22;62581;47.342;7.908;2023-01-05T05:32:55;9.90;99.90
48836;DHT22;62581;47.342;7.908;2023-01-05T05:35:22;9.90;99.90
48836;DHT22;62581;47.342;7.908;2023-01-05T05:37:50;9.90;99.90
48836;DHT22;62581;47.342;7.908;2023-01-05T05:40:16;9.90;99.90
48836;DHT22;62581;47.342;7.908;2023-01-05T05:42:43;9.90;99.90
48836;DHT22;62581;47.342;7.908;2023-01-05T05:45:10;9.90;99.90
48836;DHT22;62581;47.342;7.908;2023-01-05T05:47:37;9.90;99.90
48836;DHT22;62581;47.342;7.908;2023-01-05T05:50:04;9.90;99.90
48836;DHT22;62581;47.342;7.908;2023-01-05T05:52:31;9.80;99.90
48836;DHT22;62581;47.342;7.908;2023-01-05T05:54:59;9.90;99.90
48836;DHT22;62581;47.342;7.908;2023-01-05T05:57:26;9.80;99.90
48836;DHT22;62581;47.342;7.908;2023-01-05T05:59:52;9.90;99.90
48836;DHT22;62581;47.342;7.908;2023-01-05T06:02:19;9.90;99.90
48836;DHT22;62581;47.342;7.908;2023-01-05T06:04:46;9.90;99.90
48836;DHT22;62581;47.342;7.908;2023-01-05T06:07:13;9.90;99.90
48836;DHT22;62581;47.342;7.908;2023-01-05T06:09:40;9.90;99.90
48836;DHT22;62581;47.342;7.908;2023-01-05T06:12:08;9.90;99.90
48836;DHT22;62581;47.342;7.908;2023-01-05T06:14:35;9.90;99.90
48836;DHT22;62581;47.342;7.908;2023-01-05T06:17:01;9.90;99.90
48836;DHT22;62581;47.342;7.908;2023-01-05T06:19:28;9.90;99.90
48836;DHT22;62581;47.342;7.908;2023-01-05T06:21:55;9.90;99.90
48836;DHT22;62581;47.342;7.908;2023-01-05T06:24:22;9.90;99.90
48836;DHT22;62581;47.342;7.908;2023-01-05T06:26:49;10.00;99.90
48836;DHT22;62581;47.342;7.908;2023-01-05T06:29:17;10.00;99.90
48836;DHT22;62581;47.342;7.908;2023-01-05T06:31:43;9.90;99.90
48836;DHT22;62581;47.342;7.908;2023-01-05T06:34:10;9.90;99.90
48836;DHT22;62581;47.342;7.908;2023-01-05T06:36:37;9.90;99.90
48836;DHT22;62581;47.342;7.908;2023-01-05T06:39:04;10.00;99.90
48836;DHT22;62581;47.342;7.908;2023-01-05T06:41:30;9.90;99.90
48836;DHT22;62581;47.342;7.908;2023-01-05T06:43:59;9.90;99.90
48836;DHT22;62581;47.342;7.908;2023-01-05T06:46:27;10.00;99.90
48836;DHT22;62581;47.342;7.908;2023-01-05T06:48:54;10.00;99.90
48836;DHT22;62581;47.342;7.908;2023-01-05T06:51:21;10.00;99.90
48836;DHT22;62581;47.342;7.908;2023-01-05T06:53:48;9.90;99.90
48836;DHT22;62581;47.342;7.908;2023-01-05T06:56:14;9.90;99.90
48836;DHT22;62581;47.342;7.908;2023-01-05T06:58:41;10.00;99.90
48836;DHT22;62581;47.342;7.908;2023-01-05T07:01:08;10.00;99.90
48836;DHT22;62581;47.342;7.908;2023-01-05T07:03:36;10.00;99.90
48836;DHT22;62581;47.342;7.908;2023-01-05T07:06:03;10.00;99.90
48836;DHT22;62581;47.342;7.908;2023-01-05T07:08:30;10.00;99.90
48836;DHT22;62581;47.342;7.908;2023-01-05T07:10:57;10.00;99.90
48836;DHT22;62581;47.342;7.908;2023-01-05T07:13:23;10.00;99.90
48836;DHT22;62581;47.342;7.908;2023-01-05T07:15:50;10.00;99.90
48836;DHT22;62581;47.342;7.908;2023-01-05T07:18:17;10.00;99.90
48836;DHT22;62581;47.342;7.908;2023-01-05T07:20:45;10.00;99.90
48836;DHT22;62581;47.342;7.908;2023-01-05T07:23:12;10.00;99.90
48836;DHT22;62581;47.342;7.908;2023-01-05T07:25:39;10.00;99.90
48836;DHT22;62581;47.342;7.908;2023-01-05T07:28:05;10.00;99.90
48836;DHT22;62581;47.342;7.908;2023-01-05T07:30:32;10.00;99.90
48836;DHT22;62581;47.342;7.908;2023-01-05T07:32:59;10.10;99.90
48836;DHT22;62581;47.342;7.908;2023-01-05T07:35:26;10.20;99.90
48836;DHT22;62581;47.342;7.908;2023-01-05T07:37:55;10.20;99.90
48836;DHT22;62581;47.342;7.908;2023-01-05T07:40:22;10.20;99.90
48836;DHT22;62581;47.342;7.908;2023-01-05T07:42:49;10.20;99.90
48836;DHT22;62581;47.342;7.908;2023-01-05T07:45:16;10.20;99.90
48836;DHT22;62581;47.342;7.908;2023-01-05T07:47:43;10.20;99.90
48836;DHT22;62581;47.342;7.908;2023-01-05T07:50:10;10.30;99.90
48836;DHT22;62581;47.342;7.908;2023-01-05T07:52:36;10.30;99.90
48836;DHT22;62581;47.342;7.908;2023-01-05T07:55:05;10.30;99.90
48836;DHT22;62581;47.342;7.908;2023-01-05T07:57:32;10.30;99.90
48836;DHT22;62581;47.342;7.908;2023-01-05T07:59:59;10.30;99.90
48836;DHT22;62581;47.342;7.908;2023-01-05T08:02:26;10.30;99.90
48836;DHT22;62581;47.342;7.908;2023-01-05T08:04:53;10.30;99.90
48836;DHT22;62581;47.342;7.908;2023-01-05T08:07:20;10.30;99.90
48836;DHT22;62581;47.342;7.908;2023-01-05T08:09:46;10.30;99.90
48836;DHT22;62581;47.342;7.908;2023-01-05T08:12:32;10.30;99.90
48836;DHT22;62581;47.342;7.908;2023-01-05T08:15:19;10.30;99.90
48836;DHT22;62581;47.342;7.908;2023-01-05T08:17:45;10.40;99.90
48836;DHT22;62581;47.342;7.908;2023-01-05T08:20:12;10.30;99.90
48836;DHT22;62581;47.342;7.908;2023-01-05T08:22:39;10.30;99.90
48836;DHT22;62581;47.342;7.908;2023-01-05T08:25:06;10.30;99.90
48836;DHT22;62581;47.342;7.908;2023-01-05T08:27:34;10.30;99.90
48836;DHT22;62581;47.342;7.908;2023-01-05T08:30:01;10.30;99.90
48836;DHT22;62581;47.342;7.908;2023-01-05T08:32:28;10.30;99.90
48836;DHT22;62581;47.342;7.908;2023-01-05T08:34:54;10.30;99.90
48836;DHT22;62581;47.342;7.908;2023-01-05T08:37:21;10.30;99.90
48836;DHT22;62581;47.342;7.908;2023-01-05T08:39:48;10.40;99.90
48836;DHT22;62581;47.342;7.908;2023-01-05T08:42:15;10.40;99.90
48836;DHT22;62581;47.342;7.908;2023-01-05T08:44:43;10.50;99.90
48836;DHT22;62581;47.342;7.908;2023-01-05T08:47:10;10.60;99.90
48836;DHT22;62581;47.342;7.908;2023-01-05T08:49:37;10.70;99.90
48836;DHT22;62581;47.342;7.908;2023-01-05T08:52:03;10.70;99.90
48836;DHT22;62581;47.342;7.908;2023-01-05T08:54:31;10.80;99.90
48836;DHT22;62581;47.342;7.908;2023-01-05T08:56:58;10.80;99.90
48836;DHT22;62581;47.342;7.908;2023-01-05T08:59:25;11.00;99.90
48836;DHT22;62581;47.342;7.908;2023-01-05T09:01:53;11.00;99.90
48836;DHT22;62581;47.342;7.908;2023-01-05T09:04:20;11.10;99.90
48836;DHT22;62581;47.342;7.908;2023-01-05T09:06:46;11.20;99.90
48836;DHT22;62581;47.342;7.908;2023-01-05T09:09:13;11.20;99.90
48836;DHT22;62581;47.342;7.908;2023-01-05T09:11:40;11.20;99.90
48836;DHT22;62581;47.342;7.908;2023-01-05T09:14:10;11.30;99.90
48836;DHT22;62581;47.342;7.908;2023-01-05T09:16:38;11.20;99.90
48836;DHT22;62581;47.342;7.908;2023-01-05T09:19:07;11.20;99.90
48836;DHT22;62581;47.342;7.908;2023-01-05T09:21:34;11.30;99.90
48836;DHT22;62581;47.342;7.908;2023-01-05T09:24:03;11.20;99.90
48836;DHT22;62581;47.342;7.908;2023-01-05T09:26:31;11.20;99.90
48836;DHT22;62581;47.342;7.908;2023-01-05T09:28:58;11.20;99.90
48836;DHT22;62581;47.342;7.908;2023-01-05T09:31:25;11.20;99.90
48836;DHT22;62581;47.342;7.908;2023-01-05T09:33:51;11.20;99.90
48836;DHT22;62581;47.342;7.908;2023-01-05T09:36:20;11.20;99.90
48836;DHT22;62581;47.342;7.908;2023-01-05T09:38:47;11.10;99.90
48836;DHT22;62581;47.342;7.908;2023-01-05T09:41:15;11.20;99.90
48836;DHT22;62581;47.342;7.908;2023-01-05T09:43:46;11.20;99.90
48836;DHT22;62581;47.342;7.908;2023-01-05T09:46:18;11.30;99.90
48836;DHT22;62581;47.342;7.908;2023-01-05T09:48:46;11.40;99.90
48836;DHT22;62581;47.342;7.908;2023-01-05T09:51:15;11.50;99.90
48836;DHT22;62581;47.342;7.908;2023-01-05T09:53:44;11.50;99.90
48836;DHT22;62581;47.342;7.908;2023-01-05T09:56:14;11.50;99.90
48836;DHT22;62581;47.342;7.908;2023-01-05T09:58:44;11.50;99.90
48836;DHT22;62581;47.342;7.908;2023-01-05T10:01:12;11.60;99.90
48836;DHT22;62581;47.342;7.908;2023-01-05T10:03:40;11.70;99.90
48836;DHT22;62581;47.342;7.908;2023-01-05T10:06:10;11.90;99.90
48836;DHT22;62581;47.342;7.908;2023-01-05T10:08:38;11.90;99.90
48836;DHT22;62581;47.342;7.908;2023-01-05T10:11:09;12.00;99.90
48836;DHT22;62581;47.342;7.908;2023-01-05T10:13:56;12.00;99.90
48836;DHT22;62581;47.342;7.908;2023-01-05T10:16:24;12.00;99.90
48836;DHT22;62581;47.342;7.908;2023-01-05T10:18:52;12.10;99.90
48836;DHT22;62581;47.342;7.908;2023-01-05T10:21:21;12.10;99.90
48836;DHT22;62581;47.342;7.908;2023-01-05T10:23:55;12.10;99.90
48836;DHT22;62581;47.342;7.908;2023-01-05T10:26:32;12.10;99.90
48836;DHT22;62581;47.342;7.908;2023-01-05T10:29:01;12.20;99.90
48836;DHT22;62581;47.342;7.908;2023-01-05T10:31:30;12.20;99.90
48836;DHT22;62581;47.342;7.908;2023-01-05T10:34:02;12.20;99.90
48836;DHT22;62581;47.342;7.908;2023-01-05T10:36:37;12.20;99.90
48836;DHT22;62581;47.342;7.908;2023-01-05T10:39:08;12.20;99.90
48836;DHT22;62581;47.342;7.908;2023-01-05T10:41:43;12.30;99.90
48836;DHT22;62581;47.342;7.908;2023-01-05T10:44:29;12.40;99.90
48836;DHT22;62581;47.342;7.908;2023-01-05T10:46:59;12.50;99.90
48836;DHT22;62581;47.342;7.908;2023-01-05T10:49:27;12.70;99.90
48836;DHT22;62581;47.342;7.908;2023-01-05T10:51:55;12.80;99.90
48836;DHT22;62581;47.342;7.908;2023-01-05T10:54:25;12.90;99.90
48836;DHT22;62581;47.342;7.908;2023-01-05T10:56:56;13.10;99.90
48836;DHT22;62581;47.342;7.908;2023-01-05T10:59:53;13.30;99.90
48836;DHT22;62581;47.342;7.908;2023-01-05T11:02:20;13.50;99.90
48836;DHT22;62581;47.342;7.908;2023-01-05T11:04:47;13.70;99.90
48836;DHT22;62581;47.342;7.908;2023-01-05T11:07:14;13.90;99.90
48836;DHT22;62581;47.342;7.908;2023-01-05T11:09:41;14.10;99.90
48836;DHT22;62581;47.342;7.908;2023-01-05T11:12:14;14.20;99.90
48836;DHT22;62581;47.342;7.908;2023-01-05T11:14:42;14.10;99.90
48836;DHT22;62581;47.342;7.908;2023-01-05T11:17:15;14.10;99.90
48836;DHT22;62581;47.342;7.908;2023-01-05T11:19:44;14.00;99.90
48836;DHT22;62581;47.342;7.908;2023-01-05T11:22:28;14.00;99.90
48836;DHT22;62581;47.342;7.908;2023-01-05T11:25:05;14.00;99.90
48836;DHT22;62581;47.342;7.908;2023-01-05T11:27:39;14.10;99.90
48836;DHT22;62581;47.342;7.908;2023-01-05T11:30:19;14.00;99.90
48836;DHT22;62581;47.342;7.908;2023-01-05T11:32:48;13.90;99.90
48836;DHT22;62581;47.342;7.908;2023-01-05T11:35:16;13.80;99.90
48836;DHT22;62581;47.342;7.908;2023-01-05T11:37:43;13.90;99.90
48836;DHT22;62581;47.342;7.908;2023-01-05T11:40:13;13.90;99.90
48836;DHT22;62581;47.342;7.908;2023-01-05T11:42:42;13.80;99.90
48836;DHT22;62581;47.342;7.908;2023-01-05T11:45:16;13.80;99.90
48836;DHT22;62581;47.342;7.908;2023-01-05T11:47:45;13.80;99.90
48836;DHT22;62581;47.342;7.908;2023-01-05T11:50:17;13.80;99.90
48836;DHT22;62581;47.342;7.908;2023-01-05T11:52:46;13.70;99.90
48836;DHT22;62581;47.342;7.908;2023-01-05T11:55:27;13.60;99.90
48836;DHT22;62581;47.342;7.908;2023-01-05T11:58:09;13.60;99.90
48836;DHT22;62581;47.342;7.908;2023-01-05T12:00:38;13.70;99.90
48836;DHT22;62581;47.342;7.908;2023-01-05T12:03:19;13.80;99.90
48836;DHT22;62581;47.342;7.908;2023-01-05T12:05:50;14.10;99.90
48836;DHT22;62581;47.342;7.908;2023-01-05T12:08:20;14.40;99.90
48836;DHT22;62581;47.342;7.908;2023-01-05T12:10:52;14.50;99.90
48836;DHT22;62581;47.342;7.908;2023-01-05T12:13:38;14.70;99.90
48836;DHT22;62581;47.342;7.908;2023-01-05T12:16:24;15.20;99.90
48836;DHT22;62581;47.342;7.908;2023-01-05T12:19:05;15.70;99.90
48836;DHT22;62581;47.342;7.908;2023-01-05T12:21:35;16.20;99.90
48836;DHT22;62581;47.342;7.908;2023-01-05T12:24:22;16.60;99.90
48836;DHT22;62581;47.342;7.908;2023-01-05T12:26:54;16.90;99.90
48836;DHT22;62581;47.342;7.908;2023-01-05T12:29:28;17.30;99.90
48836;DHT22;62581;47.342;7.908;2023-01-05T12:32:10;17.80;99.90
48836;DHT22;62581;47.342;7.908;2023-01-05T12:37:29;18.30;99.90
48836;DHT22;62581;47.342;7.908;2023-01-05T12:40:06;18.30;99.90
48836;DHT22;62581;47.342;7.908;2023-01-05T12:42:41;18.70;99.90
48836;DHT22;62581;47.342;7.908;2023-01-05T12:45:29;19.10;99.90
48836;DHT22;62581;47.342;7.908;2023-01-05T12:47:58;19.20;99.90
48836;DHT22;62581;47.342;7.908;2023-01-05T12:50:30;19.80;99.90
48836;DHT22;62581;47.342;7.908;2023-01-05T12:53:00;20.50;99.90
48836;DHT22;62581;47.342;7.908;2023-01-05T12:55:27;20.80;99.90
48836;DHT22;62581;47.342;7.908;2023-01-05T12:57:56;20.50;99.90
48836;DHT22;62581;47.342;7.908;2023-01-05T13:00:24;19.90;99.90
48836;DHT22;62581;47.342;7.908;2023-01-05T13:02:56;19.10;99.90
48836;DHT22;62581;47.342;7.908;2023-01-05T13:05:26;18.20;99.90
48836;DHT22;62581;47.342;7.908;2023-01-05T13:07:54;17.90;99.90
48836;DHT22;62581;47.342;7.908;2023-01-05T13:10:25;17.90;99.90
48836;DHT22;62581;47.342;7.908;2023-01-05T13:12:54;17.50;99.90
48836;DHT22;62581;47.342;7.908;2023-01-05T13:15:23;17.20;99.90
48836;DHT22;62581;47.342;7.908;2023-01-05T13:17:52;16.90;99.90
48836;DHT22;62581;47.342;7.908;2023-01-05T13:20:26;16.70;99.90
48836;DHT22;62581;47.342;7.908;2023-01-05T13:22:57;16.60;99.90
48836;DHT22;62581;47.342;7.908;2023-01-05T13:25:26;17.30;99.90
48836;DHT22;62581;47.342;7.908;2023-01-05T13:27:54;17.50;99.90
48836;DHT22;62581;47.342;7.908;2023-01-05T13:30:22;17.50;99.90
48836;DHT22;62581;47.342;7.908;2023-01-05T13:32:57;17.50;99.90
48836;DHT22;62581;47.342;7.908;2023-01-05T13:35:31;17.10;99.90
48836;DHT22;62581;47.342;7.908;2023-01-05T13:38:14;16.80;99.90
48836;DHT22;62581;47.342;7.908;2023-01-05T13:40:51;16.50;99.90
48836;DHT22;62581;47.342;7.908;2023-01-05T13:43:33;16.00;99.90
48836;DHT22;62581;47.342;7.908;2023-01-05T13:46:07;15.60;99.90
48836;DHT22;62581;47.342;7.908;2023-01-05T13:48:43;15.40;99.90
48836;DHT22;62581;47.342;7.908;2023-01-05T13:51:21;15.20;99.90
48836;DHT22;62581;47.342;7.908;2023-01-05T13:53:51;15.10;99.90
48836;DHT22;62581;47.342;7.908;2023-01-05T13:56:19;14.90;99.90
48836;DHT22;62581;47.342;7.908;2023-01-05T13:58:48;14.90;99.90
48836;DHT22;62581;47.342;7.908;2023-01-05T14:01:17;14.80;99.90
48836;DHT22;62581;47.342;7.908;2023-01-05T14:03:48;14.80;99.90
48836;DHT22;62581;47.342;7.908;2023-01-05T14:06:17;14.90;99.90
48836;DHT22;62581;47.342;7.908;2023-01-05T14:08:48;14.90;99.90
48836;DHT22;62581;47.342;7.908;2023-01-05T14:11:17;14.90;99.90
48836;DHT22;62581;47.342;7.908;2023-01-05T14:13:45;14.90;99.90
48836;DHT22;62581;47.342;7.908;2023-01-05T14:19:07;14.70;99.90
48836;DHT22;62581;47.342;7.908;2023-01-05T14:24:27;14.50;99.90
48836;DHT22;62581;47.342;7.908;2023-01-05T14:26:59;14.50;99.90
48836;DHT22;62581;47.342;7.908;2023-01-05T14:32:11;14.20;99.90
48836;DHT22;62581;47.342;7.908;2023-01-05T14:34:43;14.10;99.90
48836;DHT22;62581;47.342;7.908;2023-01-05T14:37:17;14.00;99.90
48836;DHT22;62581;47.342;7.908;2023-01-05T14:39:48;13.90;99.90
48836;DHT22;62581;47.342;7.908;2023-01-05T14:42:18;13.80;99.90
48836;DHT22;62581;47.342;7.908;2023-01-05T14:44:47;13.70;99.90
48836;DHT22;62581;47.342;7.908;2023-01-05T14:47:15;13.60;99.90
48836;DHT22;62581;47.342;7.908;2023-01-05T14:49:50;13.50;99.90
48836;DHT22;62581;47.342;7.908;2023-01-05T14:52:18;13.40;99.90
48836;DHT22;62581;47.342;7.908;2023-01-05T14:57:37;13.30;99.90
48836;DHT22;62581;47.342;7.908;2023-01-05T15:00:06;13.30;99.90
48836;DHT22;62581;47.342;7.908;2023-01-05T15:02:41;13.20;99.90
48836;DHT22;62581;47.342;7.908;2023-01-05T15:05:10;13.20;99.90
48836;DHT22;62581;47.342;7.908;2023-01-05T15:07:40;13.20;99.90
48836;DHT22;62581;47.342;7.908;2023-01-05T15:10:17;13.20;99.90
48836;DHT22;62581;47.342;7.908;2023-01-05T15:15:43;13.10;99.90
48836;DHT22;62581;47.342;7.908;2023-01-05T15:23:58;13.00;99.90
48836;DHT22;62581;47.342;7.908;2023-01-05T15:26:33;13.00;99.90
48836;DHT22;62581;47.342;7.908;2023-01-05T15:31:54;12.90;99.90
48836;DHT22;62581;47.342;7.908;2023-01-05T15:34:22;12.80;99.90
48836;DHT22;62581;47.342;7.908;2023-01-05T15:36:51;12.80;99.90
48836;DHT22;62581;47.342;7.908;2023-01-05T15:39:26;12.70;99.90
48836;DHT22;62581;47.342;7.908;2023-01-05T15:41:54;12.70;99.90
48836;DHT22;62581;47.342;7.908;2023-01-05T15:44:22;12.60;99.90
48836;DHT22;62581;47.342;7.908;2023-01-05T15:46:49;12.50;99.90
48836;DHT22;62581;47.342;7.908;2023-01-05T15:49:19;12.50;99.90
48836;DHT22;62581;47.342;7.908;2023-01-05T15:51:49;12.40;99.90
48836;DHT22;62581;47.342;7.908;2023-01-05T15:54:18;12.30;99.90
48836;DHT22;62581;47.342;7.908;2023-01-05T15:56:45;12.30;99.90
48836;DHT22;62581;47.342;7.908;2023-01-05T16:01:01;12.30;99.90
48836;DHT22;62581;47.342;7.908;2023-01-05T16:03:30;12.10;99.90
48836;DHT22;62581;47.342;7.908;2023-01-05T16:05:59;12.10;99.90
48836;DHT22;62581;47.342;7.908;2023-01-05T16:08:27;12.10;99.90
48836;DHT22;62581;47.342;7.908;2023-01-05T16:10:58;12.00;99.90
48836;DHT22;62581;47.342;7.908;2023-01-05T16:13:29;12.00;99.90
48836;DHT22;62581;47.342;7.908;2023-01-05T16:16:02;11.90;99.90
48836;DHT22;62581;47.342;7.908;2023-01-05T16:18:34;11.90;99.90
48836;DHT22;62581;47.342;7.908;2023-01-05T16:21:07;11.80;99.90
48836;DHT22;62581;47.342;7.908;2023-01-05T16:23:39;11.80;99.90